Time;durP1;ratioP1;P1;durP2;ratioP2;P2;SDS_P1;SDS_P2;PMS_P1;PMS_P2;Temp;Humidity;BMP_temperature;BMP_pressure;BME280_temperature;BME280_humidity;BME280_pressure;Samples;Min_cycle;Max_cycle;Signal;HPM_P1;HPM_P2
2021/06/12 00:00:20;;;;;;;12.20;7.90;;;;;;;16.78;nan;96902.03;3533553;40;20841;-74
2021/06/12 00:02:48;;;;;;;9.40;7.53;;;;;;;16.77;nan;96896.88;3526316;40;20473;-74
2021/06/12 00:05:17;;;;;;;11.87;7.80;;;;;;;16.79;nan;96897.56;3526512;40;20790;-73
2021/06/12 00:07:44;;;;;;;9.80;6.80;;;;;;;16.79;nan;96901.03;3531788;40;20834;-73
2021/06/12 00:10:14;;;;;;;10.00;6.90;;;;;;;16.79;nan;96905.50;3530474;40;20476;-72
2021/06/12 00:12:42;;;;;;;9.27;6.07;;;;;;;16.73;nan;96901.59;3531935;40;20544;-71
2021/06/12 00:15:12;;;;;;;12.63;6.50;;;;;;;16.65;nan;96897.97;3530011;40;20489;-72
2021/06/12 00:17:40;;;;;;;8.43;7.03;;;;;;;16.55;nan;96895.31;3520547;40;20470;-72
2021/06/12 00:20:11;;;;;;;14.90;7.67;;;;;;;16.40;nan;96900.94;3528826;40;20571;-71
2021/06/12 00:22:39;;;;;;;12.60;7.00;;;;;;;16.31;nan;96893.84;3531098;40;20533;-71
2021/06/12 00:25:08;;;;;;;8.33;6.43;;;;;;;16.37;nan;96895.13;3528543;40;20535;-72
2021/06/12 00:27:36;;;;;;;7.07;6.37;;;;;;;16.41;nan;96894.72;3530490;40;20462;-72
2021/06/12 00:30:04;;;;;;;12.30;6.33;;;;;;;16.39;nan;96896.66;3528179;40;20475;-73
2021/06/12 00:32:36;;;;;;;9.03;7.30;;;;;;;16.40;nan;96900.13;3529901;40;20861;-73
2021/06/12 00:35:05;;;;;;;9.97;6.57;;;;;;;16.35;nan;96892.63;3531315;40;20570;-73
2021/06/12 00:37:33;;;;;;;7.87;6.40;;;;;;;16.30;nan;96892.16;3531902;40;20445;-72
2021/06/12 00:40:00;;;;;;;8.27;6.90;;;;;;;16.23;nan;96893.69;3528586;40;20920;-73
2021/06/12 00:42:27;;;;;;;9.20;7.00;;;;;;;16.26;nan;96885.47;3527906;40;20564;-72
2021/06/12 00:44:55;;;;;;;8.37;6.93;;;;;;;16.24;nan;96884.78;3529354;40;20939;-72
2021/06/12 00:47:22;;;;;;;8.90;7.03;;;;;;;16.23;nan;96877.84;3530429;40;20749;-71
2021/06/12 00:49:50;;;;;;;20.93;7.93;;;;;;;16.22;nan;96884.06;3530314;40;20577;-73
2021/06/12 00:52:18;;;;;;;11.00;7.47;;;;;;;16.17;nan;96881.84;3530116;40;20893;-72
2021/06/12 00:54:46;;;;;;;11.07;7.27;;;;;;;16.20;nan;96878.09;3527205;40;20835;-72
2021/06/12 00:57:14;;;;;;;14.83;6.70;;;;;;;16.08;nan;96882.63;3529407;40;20454;-73
2021/06/12 00:59:41;;;;;;;10.00;6.40;;;;;;;16.04;nan;96883.88;3530692;40;20465;-73
2021/06/12 01:02:08;;;;;;;8.57;7.17;;;;;;;15.96;nan;96881.06;3532071;40;20611;-73
2021/06/12 01:04:36;;;;;;;9.50;6.67;;;;;;;16.08;nan;96879.16;3522129;40;20774;-72
2021/06/12 01:07:04;;;;;;;12.10;7.67;;;;;;;15.70;nan;96877.97;3529122;40;20464;-72
2021/06/12 01:09:33;;;;;;;8.83;6.63;;;;;;;15.84;nan;96868.88;3520478;40;20899;-73
2021/06/12 01:12:10;;;;;;;8.93;6.20;;;;;;;15.92;nan;96874.38;3520458;40;20909;-72
2021/06/12 01:14:42;;;;;;;9.90;7.00;;;;;;;15.92;nan;96877.84;3531387;40;20578;-73
2021/06/12 01:17:16;;;;;;;14.90;7.37;;;;;;;15.81;nan;96875.28;3529581;40;21264;-72
2021/06/12 01:20:13;;;;;;;13.43;7.53;;;;;;;15.78;nan;96868.47;3524761;40;20470;-72
2021/06/12 01:22:55;;;;;;;9.43;6.40;;;;;;;15.61;nan;96851.38;3527486;40;20932;-74
2021/06/12 01:25:31;;;;;;;14.13;7.33;;;;;;;15.69;nan;96863.09;3528138;40;21209;-71
2021/06/12 01:28:11;;;;;;;7.93;7.13;;;;;;;15.70;nan;96862.97;3532017;40;20444;-73
2021/06/12 01:30:42;;;;;;;10.60;7.40;;;;;;;15.61;nan;96869.03;3528886;40;20461;-72
2021/06/12 01:33:13;;;;;;;7.70;6.43;;;;;;;15.54;nan;96866.09;3529913;40;20513;-73
2021/06/12 01:35:43;;;;;;;11.43;7.97;;;;;;;15.49;nan;96859.53;3528666;40;20809;-72
2021/06/12 01:38:15;;;;;;;21.37;6.97;;;;;;;15.53;nan;96855.66;3520276;40;20735;-73
2021/06/12 01:40:45;;;;;;;12.23;7.10;;;;;;;15.55;nan;96859.84;3528221;40;20808;-73
2021/06/12 01:43:15;;;;;;;9.17;6.27;;;;;;;15.54;nan;96860.81;3528843;40;20532;-71
2021/06/12 01:45:46;;;;;;;11.23;7.13;;;;;;;15.58;nan;96862.22;3529522;40;20845;-73
2021/06/12 01:48:15;;;;;;;10.03;7.80;;;;;;;15.66;nan;96852.78;3530590;40;20830;-72
2021/06/12 01:50:44;;;;;;;10.83;7.77;;;;;;;15.61;nan;96853.19;3514100;40;20710;-71
2021/06/12 01:53:16;;;;;;;14.80;6.97;;;;;;;15.58;nan;96848.16;3529188;40;20730;-72
2021/06/12 01:55:46;;;;;;;10.53;7.87;;;;;;;15.52;nan;96857.44;3526053;40;20920;-73
2021/06/12 01:58:20;;;;;;;14.30;8.40;;;;;;;15.55;nan;96857.19;3529335;40;20551;-72
2021/06/12 02:00:50;;;;;;;10.53;8.00;;;;;;;15.53;nan;96859.13;3526929;40;20562;-72
2021/06/12 02:03:19;;;;;;;11.03;8.90;;;;;;;15.50;nan;96848.81;3531294;40;20468;-72
2021/06/12 02:05:47;;;;;;;13.50;7.97;;;;;;;15.45;nan;96851.03;3526961;40;20551;-73
2021/06/12 02:08:16;;;;;;;9.80;7.90;;;;;;;15.48;nan;96858.66;3529651;40;20841;-73
2021/06/12 02:10:46;;;;;;;11.83;7.83;;;;;;;15.28;nan;96854.25;3527969;40;20575;-72
2021/06/12 02:13:15;;;;;;;12.13;7.90;;;;;;;15.35;nan;96847.50;3529581;40;20468;-73
2021/06/12 02:15:46;;;;;;;8.70;7.73;;;;;;;15.27;nan;96831.44;3529399;40;20476;-74
2021/06/12 02:18:16;;;;;;;10.70;8.20;;;;;;;15.29;nan;96854.13;3529649;40;20532;-72
2021/06/12 02:20:43;;;;;;;11.33;8.37;;;;;;;15.36;nan;96849.97;3522991;40;20794;-74
2021/06/12 02:23:11;;;;;;;12.13;8.10;;;;;;;15.35;nan;96842.22;3530260;40;21087;-73
2021/06/12 02:25:38;;;;;;;13.63;9.27;;;;;;;15.11;nan;96800.25;3528380;40;20598;-71
2021/06/12 02:28:08;;;;;;;10.83;9.13;;;;;;;15.36;nan;96849.97;3531107;40;20440;-72
2021/06/12 02:30:41;;;;;;;10.50;8.30;;;;;;;15.13;nan;96853.72;3530040;40;20806;-72
2021/06/12 02:33:13;;;;;;;12.90;9.23;;;;;;;15.16;nan;96850.81;3531123;40;20842;-70
2021/06/12 02:35:42;;;;;;;13.03;9.30;;;;;;;15.05;nan;96854.34;3529756;40;20873;-71
2021/06/12 02:38:10;;;;;;;10.73;9.30;;;;;;;15.06;nan;96852.56;3532091;40;20462;-72
2021/06/12 02:40:37;;;;;;;11.53;8.60;;;;;;;15.01;nan;96847.66;3532647;40;20611;-71
2021/06/12 02:43:05;;;;;;;10.53;8.63;;;;;;;15.01;nan;96852.94;3529900;40;20942;-74
2021/06/12 02:45:33;;;;;;;15.00;7.90;;;;;;;14.61;nan;96853.56;3529031;40;20461;-72
2021/06/12 02:48:03;;;;;;;10.80;7.30;;;;;;;14.77;nan;96842.59;3519604;40;20851;-72
2021/06/12 02:50:34;;;;;;;15.00;7.50;;;;;;;14.96;nan;96857.75;3528878;40;20454;-73
2021/06/12 02:53:05;;;;;;;10.40;7.90;;;;;;;14.99;nan;96863.63;3524029;40;20469;-72
2021/06/12 02:55:36;;;;;;;8.70;7.80;;;;;;;14.73;nan;96872.81;3527478;40;20568;-72
2021/06/12 02:58:05;;;;;;;11.87;8.03;;;;;;;14.70;nan;96865.16;3530589;40;20549;-71
2021/06/12 03:00:35;;;;;;;13.27;7.87;;;;;;;14.61;nan;96874.66;3529407;40;20555;-72
2021/06/12 03:03:03;;;;;;;9.63;7.40;;;;;;;14.51;nan;96871.88;3522111;40;20701;-73
2021/06/12 03:05:35;;;;;;;10.33;7.70;;;;;;;14.57;nan;96873.22;3531724;40;20452;-73
2021/06/12 03:08:05;;;;;;;10.97;8.40;;;;;;;14.69;nan;96874.88;3519099;40;20770;-73
2021/06/12 03:10:35;;;;;;;9.10;7.30;;;;;;;14.67;nan;96871.50;3529132;40;20827;-73
2021/06/12 03:13:06;;;;;;;10.20;7.90;;;;;;;14.60;nan;96875.59;3530757;40;20460;-72
2021/06/12 03:15:35;;;;;;;11.13;8.00;;;;;;;14.57;nan;96860.06;3529737;40;20473;-72
2021/06/12 03:18:03;;;;;;;9.33;7.70;;;;;;;14.60;nan;96875.59;3531680;40;20912;-73
2021/06/12 03:20:31;;;;;;;9.40;7.60;;;;;;;14.60;nan;96873.81;3527921;40;20698;-74
2021/06/12 03:23:02;;;;;;;8.83;7.73;;;;;;;14.62;nan;96878.94;3529437;40;20469;-73
2021/06/12 03:25:32;;;;;;;10.03;7.57;;;;;;;14.51;nan;96871.06;3520446;40;21094;-74
2021/06/12 03:27:59;;;;;;;10.03;7.83;;;;;;;14.58;nan;96877.53;3531143;40;20596;-72
2021/06/12 03:30:30;;;;;;;9.20;7.20;;;;;;;14.68;nan;96878.47;3532839;40;20474;-75
2021/06/12 03:32:59;;;;;;;10.47;7.37;;;;;;;14.68;nan;96881.09;3521128;40;20473;-74
2021/06/12 03:35:26;;;;;;;13.27;7.50;;;;;;;14.69;nan;96880.13;3519643;40;20469;-74
2021/06/12 03:37:54;;;;;;;9.37;7.77;;;;;;;14.36;nan;96871.31;3531097;40;20456;-74
2021/06/12 03:40:23;;;;;;;11.30;7.93;;;;;;;14.40;nan;96877.16;3532157;40;20476;-73
2021/06/12 03:42:53;;;;;;;12.00;7.83;;;;;;;14.33;nan;96871.56;3531210;40;20440;-73
2021/06/12 03:45:23;;;;;;;10.40;8.63;;;;;;;14.36;nan;96871.31;3519810;40;20480;-72
2021/06/12 03:47:52;;;;;;;12.77;8.57;;;;;;;14.49;nan;96871.16;3528773;40;20485;-72
2021/06/12 03:50:21;;;;;;;15.90;8.60;;;;;;;14.52;nan;96870.09;3529457;40;20721;-73
2021/06/12 03:52:50;;;;;;;9.40;7.13;;;;;;;14.57;nan;96870.59;3530876;40;21106;-72
2021/06/12 03:55:20;;;;;;;11.10;8.07;;;;;;;14.68;nan;96872.34;3521598;40;21004;-73
2021/06/12 03:57:48;;;;;;;9.03;7.30;;;;;;;14.67;nan;96873.31;3518914;40;20486;-74
2021/06/12 04:00:18;;;;;;;11.67;7.77;;;;;;;14.69;nan;96874.88;3518391;40;20461;-73
2021/06/12 04:02:48;;;;;;;7.90;7.10;;;;;;;14.73;nan;96884.19;3519643;40;20827;-72
2021/06/12 04:05:16;;;;;;;12.93;9.17;;;;;;;14.54;nan;96878.69;3520810;40;20461;-72
2021/06/12 04:07:44;;;;;;;10.17;8.57;;;;;;;14.47;nan;96882.81;3523023;40;20913;-73
2021/06/12 04:10:12;;;;;;;10.20;7.90;;;;;;;14.54;nan;96890.06;3518565;40;20549;-73
2021/06/12 04:12:40;;;;;;;12.20;7.73;;;;;;;14.69;nan;96889.84;3518641;40;21258;-74
2021/06/12 04:15:08;;;;;;;10.33;7.90;;;;;;;14.71;nan;96888.75;3521855;40;20888;-73
2021/06/12 04:17:38;;;;;;;9.30;7.80;;;;;;;14.78;nan;96887.31;3522277;40;20791;-74
2021/06/12 04:20:07;;;;;;;10.97;8.20;;;;;;;14.50;nan;96895.72;3519521;40;20476;-74
2021/06/12 04:22:34;;;;;;;8.37;6.97;;;;;;;14.38;nan;96897.53;3519200;40;20745;-74
2021/06/12 04:25:02;;;;;;;11.43;7.73;;;;;;;14.53;nan;96900.75;3518176;40;20846;-73
2021/06/12 04:27:29;;;;;;;9.87;7.17;;;;;;;14.78;nan;96902.28;3517877;40;20673;-74
2021/06/12 04:29:57;;;;;;;11.27;8.20;;;;;;;14.90;nan;96897.81;3521416;40;20830;-73
2021/06/12 04:32:24;;;;;;;8.70;7.30;;;;;;;14.79;nan;96902.16;3524547;40;20561;-73
2021/06/12 04:34:55;;;;;;;12.63;7.40;;;;;;;14.81;nan;96899.38;3532420;40;20474;-73
2021/06/12 04:37:23;;;;;;;17.77;8.03;;;;;;;14.61;nan;96896.56;3522671;40;20556;-73
2021/06/12 04:39:50;;;;;;;9.57;7.77;;;;;;;14.32;nan;96890.94;3520768;40;20482;-74
2021/06/12 04:42:18;;;;;;;12.30;7.53;;;;;;;14.26;nan;96885.34;3520806;40;20476;-74
2021/06/12 04:44:45;;;;;;;9.33;7.40;;;;;;;14.82;nan;96887.91;3522760;40;20471;-75
2021/06/12 04:47:14;;;;;;;12.97;8.03;;;;;;;15.30;nan;96886.59;3519740;40;20937;-74
2021/06/12 04:49:43;;;;;;;10.27;7.50;;;;;;;15.53;nan;96887.31;3536665;40;20724;-73
2021/06/12 04:52:14;;;;;;;10.07;7.13;;;;;;;15.71;nan;96887.56;3540915;40;20466;-74
2021/06/12 04:54:43;;;;;;;12.67;8.70;;;;;;;15.81;nan;96891.13;3531730;40;21009;-74
2021/06/12 04:57:10;;;;;;;8.47;6.57;;;;;;;15.70;nan;96886.75;3545332;40;20481;-75
2021/06/12 04:59:37;;;;;;;8.80;7.40;;;;;;;15.41;nan;96905.03;3528282;40;20548;-72
2021/06/12 05:02:05;;;;;;;9.23;7.40;;;;;;;15.50;nan;96901.59;3528096;40;20773;-73
2021/06/12 05:04:32;;;;;;;9.33;7.40;;;;;;;15.82;nan;96896.28;3509449;40;20847;-74
2021/06/12 05:07:00;;;;;;;8.80;7.27;;;;;;;16.09;nan;96902.81;3529031;40;20840;-74
2021/06/12 05:09:29;;;;;;;12.10;6.30;;;;;;;16.23;nan;96888.41;3531365;40;20818;-75
2021/06/12 05:11:56;;;;;;;8.70;7.00;;;;;;;16.07;nan;96901.25;3529869;40;20434;-72
2021/06/12 05:14:24;;;;;;;10.30;7.80;;;;;;;16.02;nan;96897.22;3519647;40;20829;-72
2021/06/12 05:16:51;;;;;;;14.43;6.67;;;;;;;16.30;nan;96889.53;3532129;40;20758;-72
2021/06/12 05:19:19;;;;;;;12.47;7.07;;;;;;;16.63;nan;96898.09;3528186;40;20478;-73
2021/06/12 05:21:47;;;;;;;12.37;6.60;;;;;;;16.85;nan;96909.44;3532850;40;20782;-74
2021/06/12 05:24:15;;;;;;;11.73;7.47;;;;;;;16.91;nan;96898.31;3529720;40;20481;-72
2021/06/12 05:26:43;;;;;;;13.70;7.83;;;;;;;16.62;nan;96877.91;3520476;40;20862;-73
2021/06/12 05:29:11;;;;;;;8.50;6.63;;;;;;;16.88;nan;96895.97;3530779;40;20794;-74
2021/06/12 05:31:38;;;;;;;11.33;6.70;;;;;;;17.15;nan;96895.25;3532008;40;20826;-73
2021/06/12 05:34:06;;;;;;;11.20;6.57;;;;;;;17.22;nan;96890.25;3532607;40;21019;-74
2021/06/12 05:36:34;;;;;;;13.60;8.40;;;;;;;17.48;nan;96870.16;3528244;40;20490;-74
2021/06/12 05:39:04;;;;;;;9.17;7.70;;;;;;;17.39;nan;96893.03;3527954;40;20907;-73
2021/06/12 05:41:32;;;;;;;8.17;6.90;;;;;;;17.30;nan;96893.88;3530923;40;20782;-74
2021/06/12 05:44:02;;;;;;;15.13;8.00;;;;;;;17.42;nan;96891.91;3541195;40;20524;-74
2021/06/12 05:46:34;;;;;;;12.37;7.37;;;;;;;17.45;nan;96886.34;3536362;40;20833;-73
2021/06/12 05:49:02;;;;;;;10.83;7.70;;;;;;;17.78;nan;96892.13;3529182;40;20781;-74
2021/06/12 05:51:30;;;;;;;10.70;8.00;;;;;;;17.86;nan;96896.75;3543530;40;20468;-73
2021/06/12 05:53:57;;;;;;;13.20;8.37;;;;;;;18.01;nan;96899.75;3534049;40;20543;-73
2021/06/12 05:56:25;;;;;;;11.43;8.07;;;;;;;18.10;nan;96898.91;3538181;40;20932;-74
2021/06/12 05:58:52;;;;;;;11.83;8.70;;;;;;;18.23;nan;96896.75;3531864;40;20547;-74
2021/06/12 06:01:21;;;;;;;13.80;8.57;;;;;;;18.27;nan;96900.78;3527732;40;20463;-73
2021/06/12 06:03:49;;;;;;;10.13;8.60;;;;;;;18.45;nan;96890.22;3516617;40;20454;-71
2021/06/12 06:06:16;;;;;;;15.83;8.37;;;;;;;18.83;nan;96898.97;3528561;40;20815;-71
2021/06/12 06:08:44;;;;;;;12.57;9.30;;;;;;;19.32;nan;96890.63;3530619;40;20855;-70
2021/06/12 06:11:11;;;;;;;11.07;8.23;;;;;;;19.21;nan;96896.16;3529349;40;20540;-73
2021/06/12 06:13:39;;;;;;;14.53;8.73;;;;;;;18.67;nan;96891.63;3527768;40;20522;-72
2021/06/12 06:16:07;;;;;;;11.23;8.60;;;;;;;19.19;nan;96893.69;3529059;40;20457;-73
2021/06/12 06:18:37;;;;;;;10.43;8.93;;;;;;;19.40;nan;96896.00;3529018;40;20449;-71
2021/06/12 06:21:06;;;;;;;8.93;7.93;;;;;;;19.48;nan;96898.75;3530158;40;20540;-72
2021/06/12 06:23:34;;;;;;;11.33;8.43;;;;;;;19.62;nan;96900.03;3530027;40;20683;-71
2021/06/12 06:26:02;;;;;;;18.50;12.23;;;;;;;19.96;nan;96891.31;3527230;40;20990;-70
2021/06/12 06:28:29;;;;;;;26.77;16.53;;;;;;;19.92;nan;96890.78;3528358;40;21354;-71
2021/06/12 06:30:56;;;;;;;10.80;8.57;;;;;;;20.13;nan;96887.75;3528641;40;20457;-73
2021/06/12 06:33:24;;;;;;;12.07;9.03;;;;;;;19.59;nan;96886.22;3532615;40;20540;-72
2021/06/12 06:35:53;;;;;;;9.77;8.27;;;;;;;19.94;nan;96894.09;3534321;40;20461;-72
2021/06/12 06:38:21;;;;;;;25.00;8.40;;;;;;;20.43;nan;96888.22;3520447;40;20723;-70
2021/06/12 06:40:49;;;;;;;10.40;8.20;;;;;;;20.77;nan;96886.53;3528980;40;20470;-71
2021/06/12 06:43:17;;;;;;;12.70;7.17;;;;;;;20.80;nan;96888.88;3530019;40;20489;-72
2021/06/12 06:45:45;;;;;;;8.93;5.97;;;;;;;20.99;nan;96893.88;3523587;40;20472;-71
2021/06/12 06:48:15;;;;;;;10.23;5.33;;;;;;;21.24;nan;96891.25;3519885;40;20791;-72
2021/06/12 06:50:44;;;;;;;10.70;6.13;;;;;;;21.42;nan;96881.25;3526231;40;20846;-72
2021/06/12 06:53:13;;;;;;;7.77;6.07;;;;;;;21.62;nan;96887.13;3528440;40;20531;-72
2021/06/12 06:55:40;;;;;;;9.37;6.57;;;;;;;21.62;nan;96894.28;3527360;40;20474;-71
2021/06/12 06:58:08;;;;;;;12.30;7.10;;;;;;;21.45;nan;96893.47;3536123;40;20540;-71
2021/06/12 07:00:36;;;;;;;7.43;5.63;;;;;;;21.55;nan;96893.31;3533919;40;20786;-72
2021/06/12 07:03:03;;;;;;;11.97;6.50;;;;;;;21.63;nan;96896.78;3528551;40;20448;-72
2021/06/12 07:05:31;;;;;;;7.10;6.20;;;;;;;22.26;nan;96892.50;3527926;40;20875;-71
2021/06/12 07:07:58;;;;;;;6.70;5.90;;;;;;;22.27;nan;96891.53;3529818;40;20469;-73
2021/06/12 07:10:27;;;;;;;13.57;8.80;;;;;;;22.27;nan;96890.69;3515802;40;20541;-71
2021/06/12 07:12:59;;;;;;;13.50;10.23;;;;;;;22.70;nan;96897.34;3530014;40;20464;-71
2021/06/12 07:15:27;;;;;;;8.67;5.40;;;;;;;22.99;nan;96892.34;3519708;40;20479;-72
2021/06/12 07:17:55;;;;;;;7.30;4.73;;;;;;;22.93;nan;96893.88;3527962;40;20563;-72
2021/06/12 07:20:23;;;;;;;6.07;4.80;;;;;;;23.26;nan;96909.72;3528561;40;20896;-72
2021/06/12 07:22:50;;;;;;;5.23;4.60;;;;;;;23.64;nan;96899.91;3530781;40;20558;-71
2021/06/12 07:25:18;;;;;;;8.30;3.70;;;;;;;24.04;nan;96889.03;3511134;40;20838;-72
2021/06/12 07:27:47;;;;;;;4.70;3.63;;;;;;;23.84;nan;96894.91;3530381;40;20473;-70
2021/06/12 07:30:16;;;;;;;8.90;4.00;;;;;;;23.94;nan;96877.78;3521376;40;20532;-71
2021/06/12 07:32:43;;;;;;;6.93;3.20;;;;;;;23.98;nan;96895.13;3517669;40;20770;-72
2021/06/12 07:35:12;;;;;;;3.80;3.10;;;;;;;24.16;nan;96892.09;3530501;40;20905;-70
2021/06/12 07:37:39;;;;;;;7.67;3.60;;;;;;;24.21;nan;96885.19;3523394;40;21140;-71
2021/06/12 07:40:09;;;;;;;6.53;3.23;;;;;;;24.99;nan;96900.78;3528945;40;20495;-71
2021/06/12 07:42:36;;;;;;;6.20;2.70;;;;;;;24.70;nan;96893.63;3529202;40;21244;-71
2021/06/12 07:45:07;;;;;;;2.90;2.60;;;;;;;24.88;nan;96898.63;3530271;40;20484;-72
2021/06/12 07:47:34;;;;;;;3.20;2.43;;;;;;;24.88;nan;96902.13;3536700;40;20760;-72
2021/06/12 07:50:01;;;;;;;5.60;2.80;;;;;;;25.57;nan;96903.47;3531068;40;20842;-72
2021/06/12 07:52:29;;;;;;;8.50;5.30;;;;;;;25.40;nan;96895.69;3529862;40;20446;-73
2021/06/12 07:54:56;;;;;;;3.97;1.93;;;;;;;25.73;nan;96897.81;3530339;40;20562;-71
2021/06/12 07:57:24;;;;;;;2.77;2.10;;;;;;;25.65;nan;96869.28;3532293;40;20942;-72
2021/06/12 07:59:51;;;;;;;9.07;2.20;;;;;;;26.00;nan;96909.59;3533551;40;20461;-73
2021/06/12 08:02:20;;;;;;;4.70;2.20;;;;;;;26.35;nan;96901.56;3518394;40;20557;-72
2021/06/12 08:04:48;;;;;;;11.13;2.43;;;;;;;25.81;nan;96900.34;3528295;40;20722;-72
2021/06/12 08:07:19;;;;;;;5.83;1.70;;;;;;;25.59;nan;96890.69;3514737;40;20882;-71
2021/06/12 08:09:49;;;;;;;2.93;1.93;;;;;;;25.75;nan;96898.44;3530385;40;20567;-71
2021/06/12 08:12:17;;;;;;;3.77;1.50;;;;;;;25.72;nan;96898.00;3527219;40;20442;-71
2021/06/12 08:14:45;;;;;;;3.40;2.47;;;;;;;26.25;nan;96898.44;3532125;40;20860;-71
2021/06/12 08:17:12;;;;;;;2.87;2.33;;;;;;;26.46;nan;96905.53;3530509;40;20857;-73
2021/06/12 08:19:41;;;;;;;4.17;1.73;;;;;;;26.18;nan;96910.97;3528157;40;20680;-71
2021/06/12 08:22:11;;;;;;;4.00;2.20;;;;;;;26.32;nan;96904.66;3529195;40;21160;-72
2021/06/12 08:24:38;;;;;;;2.83;2.10;;;;;;;26.45;nan;96901.22;3520926;40;20504;-72
2021/06/12 08:27:07;;;;;;;11.10;3.20;;;;;;;26.85;nan;96905.97;3531373;40;20468;-71
2021/06/12 08:29:35;;;;;;;5.90;2.00;;;;;;;26.68;nan;96897.41;3531395;40;21019;-72
2021/06/12 08:32:05;;;;;;;4.27;2.20;;;;;;;27.22;nan;96904.63;3520453;40;20490;-72
2021/06/12 08:34:32;;;;;;;4.07;2.40;;;;;;;27.33;nan;96912.13;3520863;40;20474;-71
2021/06/12 08:37:02;;;;;;;8.17;1.87;;;;;;;27.05;nan;96908.72;3532021;40;20452;-71
2021/06/12 08:39:30;;;;;;;1.70;1.60;;;;;;;27.44;nan;96912.56;3531965;40;20469;-73
2021/06/12 08:41:58;;;;;;;2.00;1.80;;;;;;;27.64;nan;96918.81;3529804;40;20695;-72
2021/06/12 08:44:26;;;;;;;4.33;1.60;;;;;;;27.30;nan;96915.22;3530940;40;20464;-72
2021/06/12 08:46:54;;;;;;;3.10;2.03;;;;;;;27.51;nan;96919.59;3519887;40;20714;-71
2021/06/12 08:49:22;;;;;;;6.57;1.70;;;;;;;26.81;nan;96901.00;3532126;40;20768;-72
2021/06/12 08:51:51;;;;;;;3.30;1.77;;;;;;;27.41;nan;96909.25;3520365;40;20586;-71
2021/06/12 08:54:24;;;;;;;9.40;2.20;;;;;;;27.35;nan;96917.31;3532012;40;21133;-71
2021/06/12 08:56:53;;;;;;;2.60;1.90;;;;;;;27.37;nan;96923.31;3539419;40;20526;-72
2021/06/12 08:59:25;;;;;;;5.87;2.00;;;;;;;27.35;nan;96918.13;3533473;40;20469;-71
2021/06/12 09:01:52;;;;;;;3.23;1.53;;;;;;;26.83;nan;96916.91;3530909;40;20480;-72
2021/06/12 09:04:28;;;;;;;9.70;1.90;;;;;;;27.09;nan;96918.88;3531530;40;21281;-72
2021/06/12 09:07:18;;;;;;;6.73;1.60;;;;;;;27.15;nan;96922.63;3527484;40;20758;-72
2021/06/12 09:09:47;;;;;;;6.60;1.70;;;;;;;26.41;nan;96913.38;3531246;40;20822;-72
2021/06/12 09:12:15;;;;;;;2.37;1.70;;;;;;;26.83;nan;96914.22;3532216;40;20449;-71
2021/06/12 09:15:03;;;;;;;5.80;1.37;;;;;;;26.75;nan;96923.28;3531229;40;20695;-72
2021/06/12 09:17:38;;;;;;;6.30;1.63;;;;;;;25.96;nan;96920.94;3521346;40;20805;-71
2021/06/12 09:20:09;;;;;;;1.70;1.60;;;;;;;26.55;nan;96930.41;3530013;40;20829;-72
2021/06/12 09:22:37;;;;;;;2.47;1.70;;;;;;;26.88;nan;96924.38;3521086;40;20922;-71
2021/06/12 09:25:06;;;;;;;5.63;2.10;;;;;;;26.62;nan;96924.06;3530861;40;20478;-72
2021/06/12 09:27:34;;;;;;;3.30;1.60;;;;;;;26.46;nan;96935.06;3531604;40;20571;-72
2021/06/12 09:30:04;;;;;;;2.60;1.43;;;;;;;26.71;nan;96924.72;3528370;40;20589;-72
2021/06/12 09:32:33;;;;;;;2.20;1.17;;;;;;;26.29;nan;96923.84;3529353;40;20828;-72
2021/06/12 09:35:05;;;;;;;3.27;2.20;;;;;;;27.00;nan;96922.75;3528562;40;20555;-71
2021/06/12 09:37:33;;;;;;;7.23;1.50;;;;;;;27.24;nan;96924.09;3520067;40;20693;-72
2021/06/12 09:40:03;;;;;;;3.70;1.50;;;;;;;27.40;nan;96918.34;3519243;40;20877;-72
2021/06/12 09:42:43;;;;;;;2.50;1.70;;;;;;;27.88;nan;96924.63;3528733;40;20540;-72
2021/06/12 09:45:12;;;;;;;1.93;1.67;;;;;;;27.77;nan;96918.78;3521989;40;20530;-71
2021/06/12 09:47:40;;;;;;;4.33;1.90;;;;;;;27.77;nan;96910.72;3529341;40;20771;-72
2021/06/12 09:50:10;;;;;;;10.03;1.87;;;;;;;28.09;nan;96910.97;3531392;40;20461;-72
2021/06/12 09:52:42;;;;;;;2.97;1.63;;;;;;;27.69;nan;96907.41;3528226;40;20948;-72
2021/06/12 09:55:21;;;;;;;2.30;1.90;;;;;;;27.77;nan;96897.25;3521083;40;20468;-70
2021/06/12 09:57:51;;;;;;;5.73;1.60;;;;;;;27.03;nan;96900.84;3542020;40;20459;-71
2021/06/12 10:00:28;;;;;;;2.13;1.73;;;;;;;27.53;nan;96914.03;3528200;40;21074;-72
2021/06/12 10:02:57;;;;;;;4.43;1.60;;;;;;;26.76;nan;96911.53;3509940;40;20907;-71
2021/06/12 10:05:26;;;;;;;4.70;3.07;;;;;;;27.25;nan;96900.72;3530229;40;20563;-72
2021/06/12 10:07:54;;;;;;;4.33;2.80;;;;;;;27.65;nan;96879.28;3530943;40;20544;-72
2021/06/12 10:10:23;;;;;;;2.10;1.90;;;;;;;27.79;nan;96899.75;3527951;40;20509;-72
2021/06/12 10:12:52;;;;;;;3.30;1.60;;;;;;;28.00;nan;96894.19;3521257;40;20469;-71
2021/06/12 10:15:20;;;;;;;2.23;2.00;;;;;;;28.29;nan;96897.47;3520794;40;20454;-71
2021/06/12 10:17:49;;;;;;;7.27;2.43;;;;;;;28.31;nan;96899.94;3529915;40;20834;-72
2021/06/12 10:20:19;;;;;;;5.23;2.40;;;;;;;28.48;nan;96901.16;3529137;40;20477;-72
2021/06/12 10:22:49;;;;;;;7.33;2.10;;;;;;;27.72;nan;96907.84;3529494;40;20446;-72
2021/06/12 10:25:18;;;;;;;3.93;2.00;;;;;;;28.36;nan;96900.97;3532401;40;20469;-72
2021/06/12 10:27:46;;;;;;;4.23;2.13;;;;;;;28.75;nan;96909.16;3529216;40;20457;-72
2021/06/12 10:30:19;;;;;;;7.27;2.37;;;;;;;28.47;nan;96918.31;3531965;40;20461;-72
2021/06/12 10:32:50;;;;;;;2.77;2.20;;;;;;;28.19;nan;96903.28;3527524;40;20444;-72
2021/06/12 10:35:18;;;;;;;2.57;1.93;;;;;;;27.98;nan;96896.25;3514183;40;20968;-71
2021/06/12 10:37:57;;;;;;;3.90;2.10;;;;;;;29.08;nan;96900.09;3532914;40;20543;-71
2021/06/12 10:40:40;;;;;;;8.77;2.30;;;;;;;29.21;nan;96908.13;3533310;40;20935;-72
2021/06/12 10:43:09;;;;;;;5.60;2.00;;;;;;;29.35;nan;96901.63;3529491;40;20664;-72
2021/06/12 10:45:39;;;;;;;4.80;2.03;;;;;;;29.42;nan;96901.56;3528648;40;20564;-73
2021/06/12 10:48:07;;;;;;;2.50;2.20;;;;;;;29.85;nan;96894.63;3529693;40;20818;-72
2021/06/12 10:50:43;;;;;;;4.40;2.07;;;;;;;29.47;nan;96895.53;3512843;40;20461;-72
2021/06/12 10:53:20;;;;;;;3.03;2.20;;;;;;;29.15;nan;96898.22;3535730;40;20882;-72
2021/06/12 10:55:49;;;;;;;2.17;1.77;;;;;;;29.17;nan;96888.06;3529553;40;21001;-72
2021/06/12 10:58:47;;;;;;;1.93;1.43;;;;;;;29.25;nan;96885.09;3532140;40;20515;-71
2021/06/12 11:01:25;;;;;;;1.60;1.47;;;;;;;29.20;nan;96874.13;3493496;40;20541;-72
2021/06/12 11:04:07;;;;;;;4.40;2.00;;;;;;;28.91;nan;96881.72;3519993;40;20848;-72
2021/06/12 11:06:49;;;;;;;1.90;1.40;;;;;;;28.42;nan;96879.59;3532765;40;20517;-71
2021/06/12 11:09:30;;;;;;;5.67;1.57;;;;;;;29.29;nan;96886.31;3530081;40;20869;-72
2021/06/12 11:12:00;;;;;;;2.30;2.10;;;;;;;29.06;nan;96889.50;3530643;40;20664;-72
2021/06/12 11:14:30;;;;;;;2.33;1.67;;;;;;;28.90;nan;96885.47;3531952;40;20757;-72
2021/06/12 11:17:16;;;;;;;3.83;2.30;;;;;;;29.67;nan;96880.00;3532014;40;20909;-72
2021/06/12 11:19:46;;;;;;;3.90;2.63;;;;;;;30.15;nan;96882.09;3531461;40;20480;-72
2021/06/12 11:22:29;;;;;;;2.17;1.97;;;;;;;30.32;nan;96879.69;3531899;40;20775;-73
2021/06/12 11:24:59;;;;;;;1.97;1.67;;;;;;;30.44;nan;96890.56;3529975;40;20484;-72
2021/06/12 11:27:29;;;;;;;5.97;4.13;;;;;;;30.25;nan;96873.50;3530867;40;20845;-72
2021/06/12 11:30:21;;;;;;;4.50;3.13;;;;;;;30.46;nan;96880.38;3520791;40;20714;-72
2021/06/12 11:33:12;;;;;;;3.57;1.97;;;;;;;30.12;nan;96889.81;3530664;40;20849;-72
2021/06/12 11:35:42;;;;;;;8.60;1.90;;;;;;;29.81;nan;96869.13;3528194;40;20499;-71
2021/06/12 11:38:12;;;;;;;4.03;1.83;;;;;;;30.45;nan;96884.09;3529787;40;20540;-72
2021/06/12 11:40:50;;;;;;;3.20;1.40;;;;;;;29.95;nan;96885.00;3530928;40;20807;-72
2021/06/12 11:43:32;;;;;;;3.90;1.40;;;;;;;30.07;nan;96884.25;3533181;40;20457;-72
2021/06/12 11:45:59;;;;;;;4.73;1.30;;;;;;;30.13;nan;96892.31;3519424;40;20545;-71
2021/06/12 11:48:28;;;;;;;2.90;1.50;;;;;;;29.45;nan;96893.03;3530956;40;20453;-71
2021/06/12 11:50:58;;;;;;;2.17;1.43;;;;;;;29.64;nan;96888.56;3530738;40;20442;-71
2021/06/12 11:53:34;;;;;;;7.20;1.77;;;;;;;29.34;nan;96893.72;3523065;40;20817;-72
2021/06/12 11:56:02;;;;;;;1.40;1.30;;;;;;;29.42;nan;96898.03;3533338;40;20838;-72
2021/06/12 11:58:29;;;;;;;1.97;1.40;;;;;;;28.99;nan;96897.66;3528681;40;20484;-72